createdAt,value
2023-05-14T07:56:42.001Z,51.42
2023-05-14T07:59:36.424Z,53.52
2023-05-14T08:05:58.879Z,51.49
2023-05-14T08:29:46.720Z,48.29
2023-05-14T08:31:47.990Z,46.62
2023-05-14T08:34:04.476Z,45.31
2023-05-14T08:36:17.191Z,46.50
2023-05-14T08:38:29.233Z,46.15
2023-05-14T08:40:44.951Z,43.37
2023-05-14T08:42:58.389Z,44.27
2023-05-14T08:45:16.469Z,44.78
2023-05-14T08:47:30.082Z,45.55
2023-05-14T08:49:43.119Z,45.37
2023-05-14T08:51:58.717Z,43.49
2023-05-14T08:54:10.774Z,41.22
2023-05-14T08:56:24.395Z,41.31
2023-05-14T08:58:40.485Z,42.99
2023-05-14T09:00:53.554Z,40.66
2023-05-14T09:03:06.736Z,40.66
2023-05-14T09:05:20.262Z,41.16
2023-05-14T09:07:33.890Z,39.98
2023-05-14T09:09:49.450Z,41.87
2023-05-14T09:12:02.989Z,39.69
2023-05-14T09:14:15.181Z,39.05
2023-05-14T09:16:28.778Z,39.92
2023-05-14T09:18:42.360Z,38.73
2023-05-14T09:20:54.765Z,38.61
2023-05-14T09:23:06.610Z,40.82
2023-05-14T09:25:20.222Z,39.53
2023-05-14T09:27:33.864Z,40.40
2023-05-14T09:29:49.382Z,39.11
2023-05-14T09:32:02.526Z,44.38
2023-05-14T09:34:18.567Z,41.30
2023-05-14T09:36:35.695Z,39.53
2023-05-14T09:38:45.244Z,38.37
2023-05-14T09:40:59.716Z,40.14
2023-05-14T09:43:12.438Z,40.34
2023-05-14T09:45:24.529Z,39.53
2023-05-14T09:47:36.698Z,37.85
2023-05-14T09:50:57.581Z,40.66
2023-05-14T09:53:11.159Z,38.06
2023-05-14T09:55:23.407Z,40.84
2023-05-14T09:57:36.858Z,37.03
2023-05-14T09:59:48.020Z,38.90
2023-05-14T10:01:59.599Z,37.82
2023-05-14T10:04:11.774Z,39.05
2023-05-14T10:06:24.312Z,38.13
2023-05-14T10:08:35.841Z,41.12
2023-05-14T10:10:49.416Z,39.94
2023-05-14T10:13:01.508Z,38.95
2023-05-14T10:15:17.578Z,40.12
2023-05-14T10:17:29.223Z,39.72
2023-05-14T10:19:42.790Z,41.75
2023-05-14T10:21:56.377Z,39.06
2023-05-14T10:24:08.456Z,37.62
2023-05-14T10:26:23.991Z,42.03
2023-05-14T10:28:35.103Z,43.07
2023-05-14T10:30:48.748Z,43.27
2023-05-14T10:33:00.833Z,40.97
2023-05-14T10:35:14.769Z,40.89
2023-05-14T10:37:26.899Z,43.04
2023-05-14T10:39:37.994Z,42.85
2023-05-14T10:41:50.405Z,42.05
2023-05-14T10:44:02.501Z,44.08
2023-05-14T10:46:14.773Z,42.49
2023-05-14T10:48:26.698Z,44.00
2023-05-14T10:50:38.757Z,44.72
2023-05-14T10:52:51.851Z,45.92
2023-05-14T10:55:05.384Z,44.64
2023-05-14T10:57:18.983Z,45.84
2023-05-14T10:59:31.105Z,45.77
2023-05-14T11:01:43.202Z,45.47
2023-05-14T11:03:55.338Z,46.67
2023-05-14T11:31:07.649Z,48.28
2023-05-14T11:33:41.207Z,46.45
2023-05-14T11:35:38.308Z,51.54
2023-05-14T11:37:48.859Z,49.13
2023-05-14T11:40:05.497Z,47.61
2023-05-14T11:46:06.451Z,46.86
2023-05-14T11:48:37.063Z,45.16
2023-05-14T11:50:27.583Z,49.64
2023-05-14T11:52:39.064Z,48.34
2023-05-14T11:54:55.152Z,45.43
2023-05-14T11:57:09.761Z,45.04
2023-05-14T11:59:27.809Z,47.84
2023-05-14T12:02:18.039Z,49.57
2023-05-14T12:03:55.196Z,49.87
2023-05-14T12:07:09.073Z,47.28
2023-05-14T12:14:54.955Z,51.24
2023-05-14T12:16:54.199Z,49.93
2023-05-14T12:18:46.056Z,51.64
2023-05-14T12:20:58.117Z,46.12
2023-05-14T12:23:11.722Z,46.42
2023-05-14T12:25:25.331Z,47.00
2023-05-14T12:27:37.356Z,48.69
2023-05-14T12:29:49.458Z,49.39
2023-05-14T12:32:02.503Z,48.26
2023-05-14T12:34:13.625Z,46.06
2023-05-14T12:36:27.746Z,45.04
2023-05-14T12:38:39.766Z,43.46
2023-05-14T12:40:52.806Z,50.44
2023-05-14T12:43:03.914Z,45.94
2023-05-14T12:45:15.995Z,51.52
2023-05-14T12:47:28.145Z,48.42
2023-05-14T12:49:40.151Z,47.22
2023-05-14T12:51:57.385Z,47.31
2023-05-14T12:54:05.312Z,45.92
2023-05-14T12:56:17.919Z,46.00
2023-05-14T12:58:29.534Z,45.69
2023-05-14T13:00:41.578Z,45.57
2023-05-14T13:02:53.687Z,42.19
2023-05-14T13:05:06.693Z,45.87
2023-05-14T13:07:19.763Z,44.25
2023-05-14T13:09:31.888Z,41.33
2023-05-14T13:11:43.908Z,42.91
2023-05-14T13:13:56.006Z,45.56
2023-05-14T13:16:09.117Z,41.83
2023-05-14T13:18:21.184Z,42.71
2023-05-14T13:20:33.357Z,42.41
2023-05-14T13:22:45.432Z,43.01
2023-05-14T13:24:57.510Z,39.92
2023-05-14T13:27:09.585Z,40.76
2023-05-14T13:29:23.614Z,43.93
2023-05-14T13:31:35.676Z,42.31
2023-05-14T13:33:47.766Z,40.74
2023-05-14T13:35:58.913Z,37.97
2023-05-14T13:38:11.979Z,43.05
2023-05-14T13:40:24.050Z,40.76
2023-05-14T13:42:37.698Z,41.38
2023-05-14T13:44:51.194Z,41.52
2023-05-14T13:47:03.291Z,41.52
2023-05-14T13:49:16.870Z,42.61
2023-05-14T13:51:29.005Z,42.51
2023-05-14T13:53:41.065Z,41.52
2023-05-14T13:55:53.121Z,40.94
2023-05-14T13:58:05.220Z,41.44
2023-05-14T14:00:20.217Z,40.64
2023-05-14T14:02:31.325Z,42.11
2023-05-14T14:04:42.479Z,40.42
2023-05-14T14:06:54.515Z,40.92
2023-05-14T14:09:06.603Z,42.03
2023-05-14T14:11:18.684Z,42.24
2023-05-14T14:13:30.777Z,44.43
2023-05-14T14:15:42.949Z,44.65
2023-05-14T14:17:55.868Z,44.15
2023-05-14T14:20:07.086Z,44.47
2023-05-14T14:22:20.165Z,45.77
2023-05-14T14:24:33.257Z,42.19
2023-05-14T14:26:45.412Z,44.20
2023-05-14T14:28:57.440Z,45.27
2023-05-14T14:31:09.543Z,45.17
2023-05-14T14:33:22.500Z,46.97
2023-05-14T14:35:33.701Z,44.17
2023-05-14T14:37:45.794Z,44.78
2023-05-14T14:39:57.836Z,44.55
2023-05-14T14:42:11.127Z,46.95
2023-05-14T14:44:23.178Z,42.15
2023-05-14T14:46:34.425Z,46.03
2023-05-14T14:48:46.468Z,45.90
2023-05-14T14:51:00.403Z,45.21
2023-05-14T14:53:11.602Z,45.21
2023-05-14T14:55:24.907Z,42.73
2023-05-14T14:57:37.617Z,42.76
2023-05-14T14:59:49.851Z,41.75
2023-05-14T15:02:01.888Z,43.55
2023-05-14T15:04:14.566Z,44.13
2023-05-14T15:06:26.045Z,44.93
2023-05-14T15:08:38.160Z,45.03
2023-05-14T15:10:50.257Z,41.96
2023-05-14T15:13:02.309Z,43.87
2023-05-14T15:15:15.367Z,44.67
2023-05-14T15:17:27.466Z,42.38
2023-05-14T15:19:39.513Z,42.07
2023-05-14T15:21:52.913Z,42.99
2023-05-14T15:24:03.702Z,44.70
2023-05-14T15:26:15.781Z,43.99
2023-05-14T15:28:27.860Z,44.62
2023-05-14T15:30:40.951Z,45.64
2023-05-14T15:32:53.109Z,46.24
2023-05-14T15:35:06.149Z,44.46
2023-05-14T15:37:19.203Z,43.77
2023-05-14T15:39:32.148Z,45.00
2023-05-14T15:41:43.362Z,46.20
2023-05-14T15:43:56.430Z,45.60
2023-05-14T15:46:07.563Z,45.83
2023-05-14T15:48:19.910Z,46.83
2023-05-14T15:50:31.980Z,46.83
2023-05-14T15:52:45.006Z,45.83
2023-05-14T15:54:56.229Z,48.53
2023-05-14T15:57:09.802Z,44.34
2023-05-14T15:59:21.912Z,44.74
2023-05-14T16:01:34.044Z,45.22
2023-05-14T16:03:46.192Z,46.93
2023-05-14T16:05:58.197Z,47.81
2023-05-14T16:08:11.164Z,44.90
2023-05-14T16:10:24.021Z,44.70
2023-05-14T16:12:35.922Z,45.40
2023-05-14T16:14:48.016Z,45.53
2023-05-14T16:17:00.108Z,46.20
2023-05-14T16:19:12.250Z,47.71
2023-05-14T16:21:24.252Z,47.61
2023-05-14T16:23:36.362Z,46.11
2023-05-14T16:25:49.441Z,47.71
2023-05-14T16:28:01.474Z,44.80
2023-05-14T16:30:12.629Z,46.11
2023-05-14T16:32:24.731Z,46.11
2023-05-14T16:34:36.828Z,45.70
2023-05-14T16:36:49.937Z,46.70
2023-05-14T16:41:15.097Z,46.70
2023-05-14T16:43:27.192Z,46.20
2023-05-14T16:45:40.807Z,44.70
2023-05-14T16:47:52.949Z,43.70
2023-05-14T16:50:05.953Z,44.50
2023-05-14T16:52:17.051Z,44.90
2023-05-14T16:54:29.122Z,46.20
2023-05-14T16:56:41.426Z,46.20
2023-05-14T16:58:53.294Z,45.80
2023-05-14T17:01:08.662Z,45.80
2023-05-14T17:03:18.019Z,45.72
2023-05-14T17:05:29.846Z,46.23
2023-05-14T17:07:41.920Z,44.92
2023-05-14T17:09:54.879Z,47.35
2023-05-14T17:12:06.102Z,45.65
2023-05-14T17:14:18.185Z,45.75
2023-05-14T17:16:30.253Z,47.47
2023-05-14T17:18:43.260Z,47.07
2023-05-14T17:20:55.936Z,48.70
2023-05-14T17:23:08.047Z,47.00
2023-05-14T17:25:20.105Z,46.81
2023-05-14T17:27:33.180Z,47.72
2023-05-14T17:29:44.286Z,49.43
2023-05-14T17:31:56.414Z,49.25
2023-05-14T17:34:08.447Z,49.95
2023-05-14T17:36:20.539Z,49.88
2023-05-14T17:38:32.608Z,50.51
2023-05-14T17:40:48.190Z,50.20
2023-05-14T17:43:01.273Z,52.04
2023-05-14T17:45:13.405Z,52.04
2023-05-14T17:47:25.418Z,52.97
2023-05-14T17:49:38.470Z,53.67
2023-05-14T17:51:53.083Z,56.02
2023-05-14T17:54:05.672Z,54.94
2023-05-14T17:56:18.351Z,54.63
2023-05-14T17:58:29.881Z,54.66
2023-05-14T18:00:44.424Z,55.66
2023-05-14T18:02:57.148Z,55.87
2023-05-14T18:05:10.287Z,56.70
2023-05-14T18:07:22.393Z,55.29
2023-05-14T18:09:33.567Z,57.61
2023-05-14T18:11:45.641Z,55.59
2023-05-14T18:13:58.552Z,56.70
2023-05-14T18:16:10.427Z,53.78
2023-05-14T18:18:21.906Z,55.59
2023-05-14T18:20:36.355Z,54.86
2023-05-14T18:22:48.574Z,55.36
2023-05-14T18:25:00.681Z,56.07
2023-05-14T18:27:13.700Z,56.37
2023-05-14T18:29:26.744Z,58.12
2023-05-14T18:31:36.909Z,54.89
2023-05-14T18:33:48.986Z,56.70
2023-05-14T18:36:01.043Z,57.51
2023-05-14T18:38:14.089Z,55.90
2023-05-14T18:40:25.558Z,58.14
2023-05-14T18:42:37.604Z,59.05
2023-05-14T18:44:49.699Z,56.65
2023-05-14T18:47:02.636Z,60.39
2023-05-14T18:49:13.943Z,59.99
2023-05-14T18:51:31.020Z,61.53
2023-05-14T18:53:45.077Z,61.33
2023-05-14T18:56:02.990Z,62.77
2023-05-14T18:58:14.137Z,64.49
2023-05-14T19:00:27.739Z,65.23
2023-05-14T19:23:05.612Z,70.59
2023-05-14T19:25:07.577Z,68.26
2023-05-14T19:27:21.224Z,70.39
2023-05-14T19:29:34.721Z,70.83
2023-05-14T19:31:46.864Z,71.23
2023-05-14T19:34:00.750Z,71.13
2023-05-14T19:36:13.962Z,71.13
2023-05-14T19:38:29.580Z,72.08
2023-05-14T19:40:44.411Z,71.97
2023-05-14T19:42:58.724Z,72.48
2023-05-14T19:45:11.841Z,72.28
2023-05-14T19:47:23.955Z,73.09
2023-05-14T19:49:37.569Z,72.78
2023-05-14T19:52:14.581Z,72.01
2023-05-14T19:54:09.659Z,73.83
2023-05-14T19:56:28.906Z,72.82
2023-05-14T19:58:44.191Z,73.93
2023-05-14T20:01:04.468Z,74.65
2023-05-14T20:03:14.985Z,76.57
2023-05-14T20:05:31.066Z,76.00
2023-05-14T20:07:44.643Z,75.19
2023-05-14T20:09:58.764Z,76.51
2023-05-14T20:12:12.783Z,77.12
2023-05-14T20:14:31.894Z,76.20
2023-05-14T20:16:42.507Z,76.34
2023-05-14T20:18:55.578Z,76.24
2023-05-14T20:21:06.666Z,76.34
2023-05-14T20:23:18.716Z,76.98
2023-05-14T20:25:32.647Z,75.97
2023-05-14T20:27:46.405Z,76.61
2023-05-14T20:30:00.093Z,76.82
2023-05-14T20:32:13.615Z,77.77
2023-05-14T20:34:25.703Z,77.16
2023-05-14T20:36:37.773Z,77.87
2023-05-14T20:38:50.793Z,78.11
2023-05-14T20:41:02.006Z,77.70
2023-05-14T20:43:14.076Z,77.74
2023-05-14T20:45:26.442Z,78.35
2023-05-14T20:47:38.346Z,77.64
2023-05-14T20:49:51.298Z,79.30
2023-05-14T20:52:03.537Z,78.59
2023-05-14T20:54:17.391Z,78.22
2023-05-14T20:56:28.514Z,79.95
2023-05-14T20:58:41.494Z,79.68
2023-05-14T21:00:52.681Z,80.70
2023-05-14T21:03:05.881Z,80.91
2023-05-14T21:05:16.879Z,81.15
2023-05-14T21:07:29.074Z,81.15
2023-05-14T21:09:41.018Z,81.49
2023-05-14T21:11:53.088Z,83.23
2023-05-14T21:14:05.215Z,83.33
2023-05-14T21:16:17.317Z,83.57
2023-05-14T21:18:29.431Z,84.39
2023-05-14T21:20:42.469Z,84.49
2023-05-14T21:22:55.595Z,84.01
2023-05-14T21:25:07.750Z,84.74
2023-05-14T21:27:19.773Z,84.94
2023-05-14T21:29:33.743Z,84.77
2023-05-14T21:31:44.077Z,85.38
2023-05-14T21:33:56.028Z,85.94
2023-05-14T21:36:08.118Z,87.06
2023-05-14T21:38:21.135Z,87.26
2023-05-14T21:40:33.170Z,86.85
2023-05-14T21:42:45.216Z,86.90
2023-05-14T21:44:56.444Z,87.92
2023-05-14T21:47:09.436Z,88.02
2023-05-14T21:49:20.597Z,88.02
2023-05-14T21:51:32.671Z,87.92
2023-05-14T21:53:44.793Z,87.61
2023-05-14T21:55:59.376Z,88.33
2023-05-14T21:58:11.970Z,88.74
2023-05-14T22:00:24.089Z,87.82
2023-05-14T22:02:36.116Z,87.85
2023-05-14T22:04:48.165Z,88.68
2023-05-14T22:07:00.305Z,88.78
2023-05-14T22:09:13.907Z,88.78
2023-05-14T22:11:25.974Z,89.12
2023-05-14T22:13:38.078Z,89.12
2023-05-14T22:16:01.353Z,89.74
2023-05-14T22:16:52.172Z,90.19
2023-05-14T22:19:05.352Z,89.98
2023-05-14T22:21:15.290Z,90.30
2023-05-14T22:23:29.389Z,90.09
2023-05-14T22:25:39.789Z,90.84
2023-05-14T22:27:51.844Z,90.95
2023-05-14T22:30:04.833Z,91.05
2023-05-14T22:32:16.009Z,91.77
2023-05-14T22:34:28.993Z,91.46
2023-05-14T22:36:40.198Z,91.91
2023-05-14T22:38:52.253Z,92.02
2023-05-14T22:41:04.339Z,92.22
2023-05-14T22:43:16.404Z,92.32
2023-05-14T22:45:28.534Z,92.78
2023-05-14T22:47:40.746Z,93.29
2023-05-14T22:49:54.634Z,93.19
2023-05-14T22:52:06.740Z,93.08
2023-05-14T22:54:18.413Z,93.08
2023-05-14T22:56:29.956Z,93.85
2023-05-14T22:58:43.946Z,93.74
2023-05-14T23:00:55.554Z,93.64
2023-05-14T23:03:08.140Z,93.95
2023-05-14T23:05:20.158Z,94.05
2023-05-14T23:07:32.762Z,94.92
2023-05-14T23:09:44.330Z,94.81
2023-05-14T23:11:56.492Z,96.15
2023-05-14T23:14:08.487Z,95.94
2023-05-14T23:16:19.696Z,95.57
2023-05-14T23:18:34.425Z,96.09
2023-05-14T23:20:46.369Z,95.57
2023-05-14T23:22:58.930Z,95.57
2023-05-14T23:25:10.498Z,95.78
2023-05-14T23:27:24.462Z,96.19
2023-05-14T23:29:36.159Z,96.60
2023-05-14T23:31:47.771Z,96.19
2023-05-14T23:33:59.787Z,97.16
2023-05-14T23:36:12.445Z,96.75
2023-05-14T23:38:23.994Z,97.37
2023-05-14T23:40:36.961Z,96.95
2023-05-14T23:42:49.076Z,97.27
2023-05-14T23:45:00.235Z,97.99
2023-05-14T23:47:13.189Z,97.52
2023-05-14T23:49:24.422Z,97.78
2023-05-14T23:51:36.480Z,97.52
2023-05-14T23:53:49.001Z,98.13
2023-05-14T23:56:00.650Z,98.03
2023-05-14T23:58:13.740Z,98.07
